Grimstead, Virginia
Current Conditions -  °F | °C
As of 4:55 PM on Friday 31 Oct 2014 (Local Time) from KW75 Reporting Station
Broken Clouds Broken Clouds  
Wind Chill: 13°   Ceiling: 5000
Heat Index: 13°   Visibility: 10mi
Dew Point:   Wind: 8mph
Humidity: 51%   Direction: 360°N
Pressure: 29.84"   Gusts: NA
Location:  37.5°N, 76.3°W
Report Text: KW75 312055Z AUTO 36007KT 10SM BKN050 13/03 A2984 RMK AO1 T01260028
Loading
Personal Weather Stations






























Interactive Weather Map
Tropical Storm Tracking
New forecast layout! Learn more

10-Day Weather Forecast

Advertisements
Track Severe Weather on mobile